Terminal Aerodrome Forecast
Issued by NWS Wilmington, OH

Current Version | Previous Version | Text Only | Print | Product List | Glossary Off
Versions: 1 2 3 4 5 6 7 8 9 10 11 12 13 14 15 16 17

335
FTUS41 KILN 211742
TAFILN
TAF
KILN 211742Z 2118/2218 19006KT P6SM SCT040 BKN200
     FM212300 18005KT P6SM VCTS BKN045CB
      TEMPO 2200/2203 4SM -TSRA BR BKN035CB
     FM220300 20004KT P6SM VCSH SCT045 BKN120
     FM220700 19004KT P6SM BKN080
     FM221300 24010KT P6SM SCT035=

USA.gov is the U.S. government's official web portal to all federal, state and local government web resources and services.